Time;durP1;ratioP1;P1;durP2;ratioP2;P2;SDS_P1;SDS_P2;PMS_P1;PMS_P2;Temp;Humidity;BMP_temperature;BMP_pressure;BME280_temperature;BME280_humidity;BME280_pressure;Samples;Min_cycle;Max_cycle;Signal;HPM_P1;HPM_P2
2022/07/04 00:00:45;;;;;;;1.73;1.50;;;;;;;;;;4968318;28;20329;-72
2022/07/04 00:03:11;;;;;;;1.97;1.60;;;;;;;;;;4969248;28;20227;-71
2022/07/04 00:05:37;;;;;;;2.63;1.70;;;;;;;;;;4971345;28;20217;-71
2022/07/04 00:08:03;;;;;;;3.27;1.60;;;;;;;;;;4973565;28;20180;-72
2022/07/04 00:10:30;;;;;;;3.20;1.77;;;;;;;;;;4971334;28;20243;-71
2022/07/04 00:12:56;;;;;;;3.70;1.80;;;;;;;;;;4972060;28;20205;-71
2022/07/04 00:15:23;;;;;;;3.50;1.80;;;;;;;;;;4965728;28;20185;-71
2022/07/04 00:17:49;;;;;;;3.77;1.80;;;;;;;;;;4967336;28;20222;-71
2022/07/04 00:20:15;;;;;;;2.50;1.70;;;;;;;;;;4970433;28;20200;-71
2022/07/04 00:22:42;;;;;;;1.60;1.50;;;;;;;;;;4972019;28;20204;-71
2022/07/04 00:25:08;;;;;;;2.50;1.80;;;;;;;;;;4972118;28;20172;-72
2022/07/04 00:27:34;;;;;;;4.43;1.83;;;;;;;;;;4973232;28;20204;-72
2022/07/04 00:30:00;;;;;;;2.73;1.87;;;;;;;;;;4961104;28;20247;-72
2022/07/04 00:32:26;;;;;;;3.07;1.73;;;;;;;;;;4975000;28;20675;-71
2022/07/04 00:34:53;;;;;;;2.20;1.60;;;;;;;;;;4972284;28;20580;-71
2022/07/04 00:37:19;;;;;;;4.37;1.80;;;;;;;;;;4975102;28;20188;-71
2022/07/04 00:39:45;;;;;;;3.07;1.47;;;;;;;;;;4977400;28;20243;-71
2022/07/04 00:42:11;;;;;;;2.40;1.63;;;;;;;;;;4978745;28;20207;-72
2022/07/04 00:44:37;;;;;;;2.73;1.70;;;;;;;;;;4972999;28;20195;-72
2022/07/04 00:47:04;;;;;;;2.90;1.63;;;;;;;;;;4972834;28;20200;-71
2022/07/04 00:49:30;;;;;;;4.17;1.80;;;;;;;;;;4972837;28;20191;-71
2022/07/04 00:51:56;;;;;;;3.90;1.73;;;;;;;;;;4972257;28;20212;-71
2022/07/04 00:54:26;;;;;;;3.07;1.50;;;;;;;;;;4970621;28;20647;-71
2022/07/04 00:56:53;;;;;;;2.20;1.83;;;;;;;;;;4971900;28;20191;-71
2022/07/04 00:59:20;;;;;;;4.07;1.83;;;;;;;;;;4971517;28;20200;-72
2022/07/04 01:01:46;;;;;;;2.17;1.80;;;;;;;;;;4970597;28;20223;-71
2022/07/04 01:04:12;;;;;;;3.80;2.00;;;;;;;;;;4971829;28;20176;-72
2022/07/04 01:06:38;;;;;;;2.90;1.70;;;;;;;;;;4972051;28;20179;-71
2022/07/04 01:09:05;;;;;;;3.00;1.90;;;;;;;;;;4972916;28;20181;-71
2022/07/04 01:11:31;;;;;;;1.60;1.50;;;;;;;;;;4969800;28;20196;-72
2022/07/04 01:13:58;;;;;;;2.70;1.57;;;;;;;;;;4971239;28;20192;-72
2022/07/04 01:16:25;;;;;;;3.03;1.50;;;;;;;;;;4973102;28;20208;-72
2022/07/04 01:18:54;;;;;;;1.80;1.43;;;;;;;;;;4970737;28;20199;-72
2022/07/04 01:21:21;;;;;;;2.57;1.50;;;;;;;;;;4972723;28;20216;-72
2022/07/04 01:23:47;;;;;;;3.07;1.63;;;;;;;;;;4971568;28;20667;-72
2022/07/04 01:26:13;;;;;;;2.63;1.50;;;;;;;;;;4969707;28;20200;-71
2022/07/04 01:28:40;;;;;;;2.30;1.60;;;;;;;;;;4967240;28;20203;-72
2022/07/04 01:31:06;;;;;;;6.40;1.93;;;;;;;;;;4970828;28;20847;-72
2022/07/04 01:33:32;;;;;;;2.13;1.60;;;;;;;;;;4971296;28;20326;-72
2022/07/04 01:35:59;;;;;;;2.83;1.60;;;;;;;;;;4970074;28;20235;-72
2022/07/04 01:38:25;;;;;;;2.43;1.60;;;;;;;;;;4968810;28;20227;-72
2022/07/04 01:40:51;;;;;;;2.10;1.40;;;;;;;;;;4955953;28;20212;-72
2022/07/04 01:43:18;;;;;;;3.33;1.60;;;;;;;;;;4968004;28;20177;-72
2022/07/04 01:45:44;;;;;;;4.10;1.77;;;;;;;;;;4958335;28;20188;-72
2022/07/04 01:48:11;;;;;;;2.70;1.60;;;;;;;;;;4956490;28;20169;-72
2022/07/04 01:50:38;;;;;;;3.03;1.40;;;;;;;;;;4972350;28;20250;-72
2022/07/04 01:53:04;;;;;;;2.00;1.50;;;;;;;;;;4971837;28;20291;-72
2022/07/04 01:55:30;;;;;;;3.70;1.60;;;;;;;;;;4970620;28;20195;-72
2022/07/04 01:57:57;;;;;;;3.60;1.43;;;;;;;;;;4970259;28;20276;-72
2022/07/04 02:03:09;;;;;;;2.97;1.60;;;;;;;;;;4966736;28;20818;-72
2022/07/04 02:05:37;;;;;;;2.67;1.40;;;;;;;;;;4969346;28;20180;-72
2022/07/04 02:08:03;;;;;;;2.83;1.57;;;;;;;;;;4974571;28;20731;-72
2022/07/04 02:10:29;;;;;;;2.97;1.40;;;;;;;;;;4977278;28;20215;-72
2022/07/04 02:13:02;;;;;;;2.97;1.30;;;;;;;;;;4975342;28;20221;-72
2022/07/04 02:15:29;;;;;;;6.27;1.43;;;;;;;;;;4975559;28;20258;-72
2022/07/04 02:17:55;;;;;;;4.37;1.50;;;;;;;;;;4975309;28;20207;-72
2022/07/04 02:20:22;;;;;;;3.20;1.33;;;;;;;;;;4960680;28;20205;-72
2022/07/04 02:22:48;;;;;;;3.73;1.57;;;;;;;;;;4976254;28;20212;-71
2022/07/04 02:25:14;;;;;;;1.57;1.10;;;;;;;;;;4977109;28;20262;-71
2022/07/04 02:27:40;;;;;;;3.30;1.50;;;;;;;;;;4951985;28;20180;-71
2022/07/04 02:30:06;;;;;;;2.33;1.50;;;;;;;;;;4981355;28;20200;-72
2022/07/04 02:32:33;;;;;;;1.93;1.57;;;;;;;;;;4972237;28;20216;-72
2022/07/04 02:34:59;;;;;;;2.50;1.37;;;;;;;;;;4963988;28;20176;-72
2022/07/04 02:37:25;;;;;;;2.20;1.40;;;;;;;;;;4977194;28;20189;-71
2022/07/04 02:39:52;;;;;;;2.93;1.23;;;;;;;;;;4968223;28;20220;-72
2022/07/04 02:42:18;;;;;;;3.07;1.30;;;;;;;;;;4971651;28;20211;-72
2022/07/04 02:44:45;;;;;;;3.00;1.30;;;;;;;;;;4970298;28;20188;-72
2022/07/04 02:47:11;;;;;;;3.90;1.40;;;;;;;;;;4971970;28;20184;-71
2022/07/04 02:49:41;;;;;;;2.00;1.40;;;;;;;;;;4973031;28;20197;-72
2022/07/04 02:52:12;;;;;;;3.67;1.60;;;;;;;;;;4971756;28;20200;-72
2022/07/04 02:54:38;;;;;;;2.70;1.57;;;;;;;;;;4976161;28;20659;-72
2022/07/04 02:57:04;;;;;;;2.07;1.30;;;;;;;;;;4979916;28;20660;-71
2022/07/04 02:59:30;;;;;;;2.93;1.50;;;;;;;;;;4965416;28;21094;-72
2022/07/04 03:01:56;;;;;;;2.67;1.50;;;;;;;;;;4975150;28;20291;-72
2022/07/04 03:04:22;;;;;;;1.87;1.50;;;;;;;;;;4976998;28;20177;-72
2022/07/04 03:06:49;;;;;;;2.53;1.57;;;;;;;;;;4973590;28;20331;-72
2022/07/04 03:09:15;;;;;;;4.40;1.53;;;;;;;;;;4980037;28;20981;-72
2022/07/04 03:11:41;;;;;;;1.93;1.40;;;;;;;;;;4974764;28;20691;-72
2022/07/04 03:14:08;;;;;;;1.60;1.50;;;;;;;;;;4973551;28;20230;-72
2022/07/04 03:16:34;;;;;;;2.10;1.50;;;;;;;;;;4970833;28;20185;-72
2022/07/04 03:19:00;;;;;;;3.33;1.47;;;;;;;;;;4975340;28;20180;-72
2022/07/04 03:21:26;;;;;;;2.20;1.60;;;;;;;;;;4972591;28;20239;-72
2022/07/04 03:23:58;;;;;;;3.37;1.80;;;;;;;;;;4970424;28;20287;-71
2022/07/04 03:26:30;;;;;;;4.03;1.80;;;;;;;;;;4972288;28;20204;-72
2022/07/04 03:28:56;;;;;;;2.37;1.73;;;;;;;;;;4974570;28;20208;-72
2022/07/04 03:31:23;;;;;;;3.13;1.97;;;;;;;;;;4977852;28;20290;-71
2022/07/04 03:33:49;;;;;;;3.20;1.87;;;;;;;;;;4975873;28;20184;-72
2022/07/04 03:36:15;;;;;;;4.40;1.70;;;;;;;;;;4980261;28;20184;-72
2022/07/04 03:38:42;;;;;;;4.03;1.70;;;;;;;;;;4973851;28;20185;-72
2022/07/04 03:41:08;;;;;;;3.87;1.87;;;;;;;;;;4975512;28;20518;-72
2022/07/04 03:43:34;;;;;;;3.17;1.90;;;;;;;;;;4958487;28;20181;-72
2022/07/04 03:46:00;;;;;;;2.07;1.80;;;;;;;;;;4971018;28;20237;-72
2022/07/04 03:48:26;;;;;;;3.53;1.87;;;;;;;;;;4973144;28;20208;-72
2022/07/04 03:50:53;;;;;;;3.87;1.83;;;;;;;;;;4975159;28;20203;-72
2022/07/04 03:53:19;;;;;;;1.93;1.80;;;;;;;;;;4973218;28;20231;-72
2022/07/04 03:55:46;;;;;;;2.50;1.83;;;;;;;;;;4978537;28;20212;-72
2022/07/04 03:58:12;;;;;;;2.17;1.63;;;;;;;;;;4977129;28;20192;-72
2022/07/04 04:00:39;;;;;;;3.60;1.90;;;;;;;;;;4972501;28;20192;-72
2022/07/04 04:05:26;;;;;;;3.13;1.60;;;;;;;;;;4976242;28;20200;-72
2022/07/04 04:05:54;;;;;;;2.60;1.80;;;;;;;;;;4977612;28;20247;-72
2022/07/04 04:08:20;;;;;;;2.87;1.83;;;;;;;;;;4976033;28;20169;-72
2022/07/04 04:10:47;;;;;;;2.23;2.00;;;;;;;;;;4972241;28;20184;-72
2022/07/04 04:13:13;;;;;;;4.57;2.43;;;;;;;;;;4970736;28;20204;-72
2022/07/04 04:15:39;;;;;;;3.83;2.07;;;;;;;;;;4970710;28;20177;-72
2022/07/04 04:18:05;;;;;;;4.47;2.27;;;;;;;;;;4970050;28;20249;-72
2022/07/04 04:20:31;;;;;;;3.80;2.07;;;;;;;;;;4972045;28;20216;-72
2022/07/04 04:22:57;;;;;;;4.13;2.00;;;;;;;;;;4972798;28;20212;-72
2022/07/04 04:25:24;;;;;;;3.30;1.90;;;;;;;;;;4971869;28;20210;-72
2022/07/04 04:27:50;;;;;;;3.57;2.00;;;;;;;;;;4970591;28;20181;-71
2022/07/04 04:30:16;;;;;;;3.47;2.13;;;;;;;;;;4972488;28;20192;-71
2022/07/04 04:32:42;;;;;;;4.47;1.93;;;;;;;;;;4978727;28;20251;-72
2022/07/04 04:35:09;;;;;;;2.73;1.70;;;;;;;;;;4981758;28;20276;-72
2022/07/04 04:37:35;;;;;;;3.37;1.93;;;;;;;;;;4972587;28;20204;-72
2022/07/04 04:40:01;;;;;;;2.00;1.77;;;;;;;;;;4971550;28;20204;-72
2022/07/04 04:42:29;;;;;;;2.93;1.90;;;;;;;;;;4971640;28;20631;-72
2022/07/04 04:44:55;;;;;;;3.27;2.17;;;;;;;;;;4971859;28;20180;-72
2022/07/04 04:47:22;;;;;;;2.10;1.90;;;;;;;;;;4967917;28;20180;-72
2022/07/04 04:49:48;;;;;;;2.30;1.80;;;;;;;;;;4978670;28;20189;-72
2022/07/04 04:52:14;;;;;;;5.53;2.10;;;;;;;;;;4971635;28;20248;-72
2022/07/04 04:54:40;;;;;;;2.97;1.90;;;;;;;;;;4982693;28;20202;-72
2022/07/04 04:57:06;;;;;;;2.83;2.20;;;;;;;;;;4966024;28;20556;-72
2022/07/04 04:59:32;;;;;;;2.57;2.07;;;;;;;;;;4970692;28;20211;-72
2022/07/04 05:01:59;;;;;;;3.23;1.90;;;;;;;;;;4968514;28;20200;-72
2022/07/04 05:04:25;;;;;;;3.50;2.10;;;;;;;;;;4970409;28;20172;-72
2022/07/04 05:06:52;;;;;;;3.73;2.07;;;;;;;;;;4968439;28;20413;-72
2022/07/04 05:09:19;;;;;;;4.90;2.20;;;;;;;;;;4973235;28;20181;-72
2022/07/04 05:11:46;;;;;;;3.73;1.80;;;;;;;;;;4969139;28;20201;-72
2022/07/04 05:14:12;;;;;;;4.57;2.07;;;;;;;;;;4969199;28;20307;-72
2022/07/04 05:16:38;;;;;;;3.97;2.30;;;;;;;;;;4967643;28;20202;-72
2022/07/04 05:19:09;;;;;;;3.77;2.00;;;;;;;;;;4970257;28;20209;-72
2022/07/04 05:21:35;;;;;;;5.43;2.00;;;;;;;;;;4968786;28;20220;-72
2022/07/04 05:24:02;;;;;;;2.47;2.00;;;;;;;;;;4970092;28;20185;-72
2022/07/04 05:26:28;;;;;;;2.37;2.00;;;;;;;;;;4973831;28;21842;-72
2022/07/04 05:28:55;;;;;;;3.13;2.10;;;;;;;;;;4966490;28;20198;-71
2022/07/04 05:31:21;;;;;;;3.80;2.10;;;;;;;;;;4969732;28;20267;-71
2022/07/04 05:33:47;;;;;;;6.30;2.50;;;;;;;;;;4966051;28;20183;-72
2022/07/04 05:36:14;;;;;;;3.73;2.20;;;;;;;;;;4970558;28;20256;-71
2022/07/04 05:38:40;;;;;;;3.37;1.97;;;;;;;;;;4971180;28;20255;-71
2022/07/04 05:41:06;;;;;;;3.13;2.10;;;;;;;;;;4967690;28;20208;-72
2022/07/04 05:43:32;;;;;;;2.63;2.17;;;;;;;;;;4980669;28;20180;-72
2022/07/04 05:45:58;;;;;;;3.73;2.27;;;;;;;;;;4975599;28;20640;-72
2022/07/04 05:48:24;;;;;;;3.97;2.30;;;;;;;;;;4974683;28;20176;-72
2022/07/04 05:50:50;;;;;;;3.17;2.10;;;;;;;;;;4974058;28;20198;-72
2022/07/04 05:53:17;;;;;;;3.27;2.20;;;;;;;;;;4973884;28;20691;-72
2022/07/04 05:55:43;;;;;;;4.63;2.30;;;;;;;;;;4974810;28;20192;-72
2022/07/04 05:58:09;;;;;;;4.30;2.20;;;;;;;;;;4974393;28;20184;-72
2022/07/04 06:00:35;;;;;;;3.60;2.43;;;;;;;;;;4972313;28;20200;-71
2022/07/04 06:03:01;;;;;;;4.00;2.40;;;;;;;;;;4971223;28;20201;-72
2022/07/04 06:05:27;;;;;;;4.40;2.27;;;;;;;;;;4973966;28;20675;-73
2022/07/04 06:07:53;;;;;;;4.37;2.33;;;;;;;;;;4974426;28;20548;-73
2022/07/04 06:10:20;;;;;;;2.83;2.37;;;;;;;;;;4973853;28;20199;-73
2022/07/04 06:12:46;;;;;;;2.63;2.30;;;;;;;;;;4975797;28;20212;-73
2022/07/04 06:15:12;;;;;;;3.47;2.10;;;;;;;;;;4976599;28;20200;-73
2022/07/04 06:17:38;;;;;;;4.63;2.10;;;;;;;;;;4972932;28;20243;-73
2022/07/04 06:20:05;;;;;;;2.40;2.20;;;;;;;;;;4974772;28;20206;-74
2022/07/04 06:22:45;;;;;;;5.07;2.53;;;;;;;;;;4968898;28;20221;-74
2022/07/04 06:25:12;;;;;;;2.53;2.23;;;;;;;;;;4974020;28;20176;-76
2022/07/04 06:27:38;;;;;;;3.93;2.37;;;;;;;;;;4974398;28;20271;-73
2022/07/04 06:30:05;;;;;;;4.17;2.20;;;;;;;;;;4971512;28;20227;-72
2022/07/04 06:32:40;;;;;;;3.13;2.10;;;;;;;;;;4972451;28;20209;-73
2022/07/04 06:37:52;;;;;;;3.97;2.30;;;;;;;;;;4974733;28;20716;-73
2022/07/04 06:40:18;;;;;;;3.57;2.13;;;;;;;;;;4969980;28;20209;-73
2022/07/04 06:42:44;;;;;;;4.17;2.20;;;;;;;;;;4968395;28;20208;-73
2022/07/04 06:45:10;;;;;;;2.97;2.07;;;;;;;;;;4962832;28;20180;-74
2022/07/04 06:47:37;;;;;;;4.73;2.10;;;;;;;;;;4968854;28;20663;-73
2022/07/04 06:50:03;;;;;;;3.50;2.00;;;;;;;;;;4967210;28;20180;-72
2022/07/04 06:52:29;;;;;;;2.70;2.20;;;;;;;;;;4967710;28;20207;-73
2022/07/04 06:54:55;;;;;;;2.80;1.90;;;;;;;;;;4968842;28;20188;-73
2022/07/04 06:57:21;;;;;;;4.90;2.40;;;;;;;;;;4967689;28;20185;-73
2022/07/04 06:59:48;;;;;;;3.53;2.07;;;;;;;;;;4965319;28;20262;-73
2022/07/04 07:02:14;;;;;;;3.60;2.20;;;;;;;;;;4963692;28;20207;-74
2022/07/04 07:04:41;;;;;;;5.40;2.00;;;;;;;;;;4965297;28;20203;-75
2022/07/04 07:07:07;;;;;;;2.67;1.90;;;;;;;;;;4967309;28;20967;-73
2022/07/04 07:09:33;;;;;;;3.97;2.00;;;;;;;;;;4966990;28;20196;-73
2022/07/04 07:11:59;;;;;;;4.23;1.93;;;;;;;;;;4964652;28;20216;-72
2022/07/04 07:14:25;;;;;;;3.23;1.90;;;;;;;;;;4966816;28;20181;-73
2022/07/04 07:16:52;;;;;;;5.70;2.13;;;;;;;;;;4965088;28;20245;-72
2022/07/04 07:19:18;;;;;;;2.30;1.90;;;;;;;;;;4966199;28;20267;-73
2022/07/04 07:21:44;;;;;;;2.07;1.60;;;;;;;;;;4965419;28;20216;-73
2022/07/04 07:24:10;;;;;;;2.00;1.80;;;;;;;;;;4967138;28;20189;-73
2022/07/04 07:26:36;;;;;;;2.53;1.70;;;;;;;;;;4966713;28;20200;-72
2022/07/04 07:29:02;;;;;;;2.43;1.80;;;;;;;;;;4965535;28;20265;-72
2022/07/04 07:31:29;;;;;;;3.17;2.03;;;;;;;;;;4965891;28;20204;-72
2022/07/04 07:33:55;;;;;;;3.27;1.80;;;;;;;;;;4968438;28;20185;-73
2022/07/04 07:36:21;;;;;;;2.73;1.90;;;;;;;;;;4967027;28;20243;-73
2022/07/04 07:38:47;;;;;;;2.70;1.80;;;;;;;;;;4967321;28;20180;-72
2022/07/04 07:41:14;;;;;;;2.77;1.80;;;;;;;;;;4964782;28;20219;-72
2022/07/04 07:43:40;;;;;;;3.10;1.70;;;;;;;;;;4964265;28;20185;-73
2022/07/04 07:46:07;;;;;;;2.57;1.70;;;;;;;;;;4949510;28;20360;-73
2022/07/04 07:48:34;;;;;;;3.67;1.80;;;;;;;;;;4965357;28;20591;-72
2022/07/04 07:51:00;;;;;;;3.30;1.53;;;;;;;;;;4967960;28;20208;-73
2022/07/04 07:53:26;;;;;;;2.60;1.50;;;;;;;;;;4965836;28;20192;-73
2022/07/04 07:55:52;;;;;;;3.43;1.70;;;;;;;;;;4971565;28;20180;-73
2022/07/04 07:58:19;;;;;;;3.50;1.67;;;;;;;;;;4972218;28;20187;-72
2022/07/04 08:00:46;;;;;;;4.23;1.70;;;;;;;;;;4970594;28;20217;-73
2022/07/04 08:05:57;;;;;;;2.97;1.80;;;;;;;;;;4969843;28;20196;-73
2022/07/04 08:08:23;;;;;;;2.10;1.50;;;;;;;;;;4967449;28;20180;-73
2022/07/04 08:10:50;;;;;;;1.60;1.30;;;;;;;;;;4971443;28;20635;-73
2022/07/04 08:13:16;;;;;;;2.40;1.70;;;;;;;;;;4970817;28;20546;-76
2022/07/04 08:15:43;;;;;;;3.63;1.70;;;;;;;;;;4969886;28;20220;-72
2022/07/04 08:18:09;;;;;;;2.50;1.50;;;;;;;;;;4969018;28;20227;-72
2022/07/04 08:20:36;;;;;;;4.67;1.77;;;;;;;;;;4971315;28;20692;-72
2022/07/04 08:23:02;;;;;;;2.23;1.80;;;;;;;;;;4972925;28;20211;-72
2022/07/04 08:25:28;;;;;;;2.87;1.67;;;;;;;;;;4972351;28;20220;-72
2022/07/04 08:27:54;;;;;;;3.37;1.70;;;;;;;;;;4969045;28;20554;-72
2022/07/04 08:30:20;;;;;;;1.83;1.50;;;;;;;;;;4970548;28;20197;-73
2022/07/04 08:32:46;;;;;;;3.13;1.60;;;;;;;;;;4970352;28;20623;-73
2022/07/04 08:35:13;;;;;;;1.70;1.50;;;;;;;;;;4969796;28;20180;-75
2022/07/04 08:37:40;;;;;;;2.23;1.60;;;;;;;;;;4974915;28;20215;-75
2022/07/04 08:40:07;;;;;;;2.83;1.50;;;;;;;;;;4972345;28;20216;-73
2022/07/04 08:42:38;;;;;;;2.10;1.60;;;;;;;;;;4957651;28;20299;-74
2022/07/04 08:45:05;;;;;;;3.77;1.60;;;;;;;;;;4973623;28;20173;-74
2022/07/04 08:47:35;;;;;;;2.97;1.60;;;;;;;;;;4972678;28;20552;-75
2022/07/04 08:50:01;;;;;;;3.80;1.67;;;;;;;;;;4971791;28;20188;-75
2022/07/04 08:52:34;;;;;;;2.53;1.73;;;;;;;;;;4957386;28;20625;-74
2022/07/04 09:00:31;;;;;;;4.03;1.40;;;;;;;;;;4969489;28;20853;-71
2022/07/04 09:02:59;;;;;;;2.17;1.43;;;;;;;;;;4955728;28;20574;-73
2022/07/04 09:05:26;;;;;;;1.83;1.40;;;;;;;;;;4969890;28;20176;-73
2022/07/04 09:07:53;;;;;;;2.27;1.47;;;;;;;;;;4970747;28;20653;-73
2022/07/04 09:10:20;;;;;;;2.70;1.67;;;;;;;;;;4970066;28;20181;-73
2022/07/04 09:12:46;;;;;;;3.60;2.00;;;;;;;;;;4968830;28;20696;-73
2022/07/04 09:15:12;;;;;;;3.03;1.40;;;;;;;;;;4971692;28;20235;-73
2022/07/04 09:17:39;;;;;;;2.20;1.50;;;;;;;;;;4969336;28;20185;-73
2022/07/04 09:20:11;;;;;;;2.90;1.70;;;;;;;;;;4973171;28;20209;-73
2022/07/04 09:22:38;;;;;;;6.63;1.80;;;;;;;;;;4965898;28;20204;-73
2022/07/04 09:25:05;;;;;;;1.97;1.43;;;;;;;;;;4971218;28;20235;-73
2022/07/04 09:27:36;;;;;;;2.10;1.50;;;;;;;;;;4970877;28;20607;-71
2022/07/04 09:30:03;;;;;;;1.67;1.40;;;;;;;;;;4967679;28;20196;-73
2022/07/04 09:32:36;;;;;;;6.03;1.60;;;;;;;;;;4969413;28;20683;-72
2022/07/04 09:35:04;;;;;;;4.13;1.57;;;;;;;;;;4970948;28;20195;-72
2022/07/04 09:37:40;;;;;;;1.77;1.40;;;;;;;;;;4966267;28;20715;-72
2022/07/04 09:40:07;;;;;;;1.57;1.30;;;;;;;;;;4963235;28;20204;-72
2022/07/04 09:42:37;;;;;;;2.13;1.60;;;;;;;;;;4965313;28;20196;-72
2022/07/04 09:45:08;;;;;;;2.27;1.60;;;;;;;;;;4947674;28;20193;-72
2022/07/04 09:47:35;;;;;;;3.23;1.57;;;;;;;;;;4964396;28;20184;-72
2022/07/04 09:50:06;;;;;;;3.73;1.73;;;;;;;;;;4966305;28;20189;-72
2022/07/04 09:52:32;;;;;;;1.50;1.40;;;;;;;;;;4963541;28;20196;-71
2022/07/04 09:55:02;;;;;;;1.60;1.50;;;;;;;;;;4964312;28;20720;-72
2022/07/04 09:57:31;;;;;;;2.20;1.60;;;;;;;;;;4964579;28;20188;-72
2022/07/04 09:59:57;;;;;;;2.57;1.57;;;;;;;;;;4963452;28;20212;-72
2022/07/04 10:02:24;;;;;;;2.37;1.40;;;;;;;;;;4962743;28;20211;-72
2022/07/04 10:04:51;;;;;;;3.47;1.60;;;;;;;;;;4965821;28;20558;-72
2022/07/04 10:07:31;;;;;;;2.37;1.60;;;;;;;;;;4965463;28;20195;-72
2022/07/04 10:09:57;;;;;;;1.83;1.30;;;;;;;;;;4962826;28;20219;-73
2022/07/04 10:12:30;;;;;;;2.57;1.50;;;;;;;;;;4961609;28;20696;-74
2022/07/04 10:14:56;;;;;;;3.47;1.33;;;;;;;;;;4963920;28;20665;-74
2022/07/04 10:17:22;;;;;;;1.87;1.40;;;;;;;;;;4963754;28;20319;-74
2022/07/04 10:19:51;;;;;;;4.47;1.63;;;;;;;;;;4964224;28;20208;-73
2022/07/04 10:22:18;;;;;;;2.70;1.50;;;;;;;;;;4963144;28;20723;-73
2022/07/04 10:24:44;;;;;;;2.03;1.50;;;;;;;;;;4964589;28;20188;-73
2022/07/04 10:27:12;;;;;;;2.87;1.37;;;;;;;;;;4963891;28;20212;-73
2022/07/04 10:29:38;;;;;;;3.47;1.73;;;;;;;;;;4967130;28;20248;-74
2022/07/04 10:32:06;;;;;;;2.67;1.40;;;;;;;;;;4965203;28;20638;-73
2022/07/04 10:34:39;;;;;;;2.23;1.57;;;;;;;;;;4967485;28;20652;-75
2022/07/04 10:37:05;;;;;;;3.43;1.60;;;;;;;;;;4968262;28;20653;-73
2022/07/04 10:39:31;;;;;;;3.97;1.63;;;;;;;;;;4967889;28;20562;-73
2022/07/04 10:41:58;;;;;;;2.53;1.60;;;;;;;;;;4972821;28;20197;-79
2022/07/04 10:44:26;;;;;;;1.90;1.43;;;;;;;;;;4978637;28;20239;-77
2022/07/04 10:46:56;;;;;;;3.53;1.90;;;;;;;;;;4968002;28;20197;-75
2022/07/04 10:49:26;;;;;;;2.47;1.60;;;;;;;;;;4971412;28;20743;-77
2022/07/04 10:52:11;;;;;;;3.23;1.50;;;;;;;;;;4971595;28;21155;-77
2022/07/04 10:54:39;;;;;;;1.87;1.40;;;;;;;;;;4969892;28;20189;-76
2022/07/04 10:57:14;;;;;;;1.63;1.33;;;;;;;;;;4969520;28;20783;-77
2022/07/04 10:59:42;;;;;;;2.17;1.43;;;;;;;;;;4971544;28;20223;-76
2022/07/04 11:02:09;;;;;;;2.80;1.60;;;;;;;;;;4974151;28;20274;-76
2022/07/04 11:04:54;;;;;;;4.53;1.67;;;;;;;;;;4973794;28;20585;-76
2022/07/04 11:07:44;;;;;;;3.63;1.40;;;;;;;;;;4970974;28;20176;-77
2022/07/04 11:10:13;;;;;;;1.77;1.40;;;;;;;;;;4964216;28;20197;-77
2022/07/04 11:12:54;;;;;;;2.57;1.40;;;;;;;;;;4974837;28;20213;-75
2022/07/04 11:15:33;;;;;;;2.50;1.30;;;;;;;;;;4974959;28;20193;-76
2022/07/04 11:18:03;;;;;;;2.53;1.40;;;;;;;;;;4971371;28;20185;-77
2022/07/04 11:20:31;;;;;;;1.97;1.47;;;;;;;;;;4975036;28;20222;-76
2022/07/04 11:23:06;;;;;;;5.20;1.63;;;;;;;;;;4976337;28;20215;-77
2022/07/04 11:25:33;;;;;;;4.57;1.50;;;;;;;;;;4973050;28;20184;-73
2022/07/04 11:28:17;;;;;;;2.03;1.50;;;;;;;;;;4967087;28;20190;-73
2022/07/04 11:30:54;;;;;;;1.33;1.10;;;;;;;;;;4970211;28;20231;-73
2022/07/04 11:33:21;;;;;;;1.77;1.30;;;;;;;;;;4961823;28;20252;-74
2022/07/04 11:36:07;;;;;;;1.73;1.30;;;;;;;;;;4971565;28;20572;-78
2022/07/04 11:38:46;;;;;;;1.73;1.40;;;;;;;;;;4965307;28;20577;-74
2022/07/04 11:46:42;;;;;;;1.60;1.30;;;;;;;;;;4956062;28;20188;-71
2022/07/04 11:49:09;;;;;;;3.23;1.30;;;;;;;;;;4969291;28;20246;-71
2022/07/04 11:51:35;;;;;;;1.73;1.30;;;;;;;;;;4972276;28;20611;-72
2022/07/04 11:54:05;;;;;;;2.17;1.27;;;;;;;;;;4968882;28;20220;-71
2022/07/04 11:56:31;;;;;;;1.43;1.20;;;;;;;;;;4970516;28;20185;-71
2022/07/04 11:59:09;;;;;;;1.10;1.00;;;;;;;;;;4966756;28;20243;-70
2022/07/04 12:01:35;;;;;;;2.40;1.23;;;;;;;;;;4972293;28;20713;-71
2022/07/04 12:04:20;;;;;;;2.60;1.30;;;;;;;;;;4969241;28;20180;-71
2022/07/04 12:06:47;;;;;;;2.47;1.20;;;;;;;;;;4968604;28;20234;-71
2022/07/04 12:09:16;;;;;;;1.60;1.20;;;;;;;;;;4960941;28;20555;-70
2022/07/04 12:11:55;;;;;;;1.90;1.27;;;;;;;;;;4965082;28;20244;-71
2022/07/04 12:14:21;;;;;;;1.60;1.20;;;;;;;;;;4965956;28;20219;-71
2022/07/04 12:16:48;;;;;;;1.47;1.10;;;;;;;;;;4965487;28;20978;-70
2022/07/04 12:19:14;;;;;;;1.63;1.00;;;;;;;;;;4964017;28;20195;-71
2022/07/04 12:21:42;;;;;;;2.17;1.20;;;;;;;;;;4963755;28;20624;-71
2022/07/04 12:24:09;;;;;;;2.37;1.37;;;;;;;;;;4964724;28;20190;-71
2022/07/04 12:26:45;;;;;;;3.20;1.43;;;;;;;;;;4964186;28;20184;-71
2022/07/04 12:29:12;;;;;;;2.60;1.17;;;;;;;;;;4964723;28;20204;-71
2022/07/04 12:31:44;;;;;;;2.17;1.30;;;;;;;;;;4962341;28;20196;-71
2022/07/04 12:34:14;;;;;;;2.10;1.13;;;;;;;;;;4961977;28;20294;-70
2022/07/04 12:36:56;;;;;;;2.37;1.30;;;;;;;;;;4959993;28;20181;-70
2022/07/04 12:39:33;;;;;;;1.87;1.10;;;;;;;;;;4967874;28;20274;-70
2022/07/04 12:42:05;;;;;;;2.87;1.23;;;;;;;;;;4962823;28;20220;-71
2022/07/04 12:44:32;;;;;;;1.87;1.20;;;;;;;;;;4964854;28;20258;-71
2022/07/04 12:46:59;;;;;;;1.43;1.00;;;;;;;;;;4962078;28;20274;-71
2022/07/04 12:49:25;;;;;;;1.57;1.10;;;;;;;;;;4963505;28;20192;-71
2022/07/04 12:51:51;;;;;;;0.80;0.80;;;;;;;;;;4945414;28;20209;-72
2022/07/04 12:54:18;;;;;;;1.13;1.03;;;;;;;;;;4962048;28;20839;-71
2022/07/04 12:56:45;;;;;;;1.67;1.10;;;;;;;;;;4960852;28;20185;-71
2022/07/04 12:59:13;;;;;;;1.10;1.00;;;;;;;;;;4958974;28;20278;-71
2022/07/04 13:01:41;;;;;;;2.37;1.20;;;;;;;;;;4967449;28;20270;-71
2022/07/04 13:04:07;;;;;;;1.53;1.00;;;;;;;;;;4969490;28;20196;-71
2022/07/04 13:06:34;;;;;;;1.37;0.90;;;;;;;;;;4969459;28;20181;-71
2022/07/04 13:09:01;;;;;;;2.53;1.00;;;;;;;;;;4962809;28;21305;-71
2022/07/04 13:14:13;;;;;;;1.30;1.10;;;;;;;;;;4964792;28;20197;-71
2022/07/04 13:16:39;;;;;;;1.73;1.10;;;;;;;;;;4970910;28;20188;-71
2022/07/04 13:19:05;;;;;;;2.60;1.00;;;;;;;;;;4965470;28;20310;-71
2022/07/04 13:21:31;;;;;;;2.77;1.10;;;;;;;;;;4964813;28;20226;-71
2022/07/04 13:23:58;;;;;;;1.73;1.00;;;;;;;;;;4966370;28;20192;-71
2022/07/04 13:26:25;;;;;;;1.90;1.10;;;;;;;;;;4964963;28;20181;-71
2022/07/04 13:28:51;;;;;;;1.20;0.93;;;;;;;;;;4963204;28;20234;-71
2022/07/04 13:31:17;;;;;;;2.27;1.20;;;;;;;;;;4966722;28;20219;-71
2022/07/04 13:33:44;;;;;;;1.93;1.00;;;;;;;;;;4962489;28;20214;-71
2022/07/04 13:36:10;;;;;;;2.30;1.17;;;;;;;;;;4965948;28;20187;-71
2022/07/04 13:38:37;;;;;;;1.83;1.10;;;;;;;;;;4964999;28;20197;-71
2022/07/04 13:41:03;;;;;;;1.10;1.00;;;;;;;;;;4964312;28;20235;-72
2022/07/04 13:43:29;;;;;;;1.77;0.93;;;;;;;;;;4967198;28;20242;-73
2022/07/04 13:45:56;;;;;;;2.23;0.90;;;;;;;;;;4963990;28;20602;-72
2022/07/04 13:48:22;;;;;;;1.10;0.90;;;;;;;;;;4961296;28;20188;-72
2022/07/04 13:50:49;;;;;;;1.80;1.10;;;;;;;;;;4964979;28;20270;-74
2022/07/04 13:53:15;;;;;;;2.67;1.10;;;;;;;;;;4967324;28;20210;-78
2022/07/04 13:55:41;;;;;;;1.63;0.90;;;;;;;;;;4967911;28;20202;-77
2022/07/04 13:58:08;;;;;;;1.83;1.20;;;;;;;;;;4948268;28;20200;-74
2022/07/04 14:00:35;;;;;;;1.80;1.00;;;;;;;;;;4949892;28;20211;-74
2022/07/04 14:03:02;;;;;;;1.53;0.90;;;;;;;;;;4965728;28;20220;-74
2022/07/04 14:05:29;;;;;;;1.37;1.00;;;;;;;;;;4971689;28;20183;-74
2022/07/04 14:07:55;;;;;;;1.50;0.90;;;;;;;;;;4968329;28;20170;-75
2022/07/04 14:10:21;;;;;;;1.50;0.90;;;;;;;;;;4969168;28;20185;-75
2022/07/04 14:12:48;;;;;;;1.67;0.90;;;;;;;;;;4970596;28;20198;-74
2022/07/04 14:15:14;;;;;;;2.07;0.90;;;;;;;;;;4971372;28;20203;-75
2022/07/04 14:17:41;;;;;;;1.27;0.93;;;;;;;;;;4967573;28;20244;-74
2022/07/04 14:20:09;;;;;;;1.80;1.00;;;;;;;;;;4967762;28;20204;-73
2022/07/04 14:22:35;;;;;;;2.55;0.90;;;;;;;;;;4969630;28;20207;-74
2022/07/04 14:25:02;;;;;;;1.58;0.90;;;;;;;;;;4967437;28;20673;-74
2022/07/04 14:27:28;;;;;;;3.00;1.08;;;;;;;;;;4967205;28;20196;-74
2022/07/04 14:29:55;;;;;;;5.05;1.08;;;;;;;;;;4968083;28;20202;-73
2022/07/04 14:32:21;;;;;;;1.10;0.77;;;;;;;;;;4970590;28;20250;-74
2022/07/04 14:34:47;;;;;;;1.67;0.90;;;;;;;;;;4970743;28;20608;-74
2022/07/04 14:37:13;;;;;;;0.80;0.80;;;;;;;;;;4971200;28;20203;-74
2022/07/04 14:39:40;;;;;;;1.88;1.00;;;;;;;;;;4966176;28;20201;-74
2022/07/04 14:42:06;;;;;;;2.83;1.23;;;;;;;;;;4965285;28;20292;-74
2022/07/04 14:44:37;;;;;;;1.00;0.93;;;;;;;;;;4948298;28;20196;-74
2022/07/04 14:47:04;;;;;;;1.27;0.85;;;;;;;;;;4967099;28;20208;-76
2022/07/04 14:49:30;;;;;;;1.85;0.98;;;;;;;;;;4966580;28;20726;-73
2022/07/04 14:52:00;;;;;;;1.45;0.80;;;;;;;;;;4968223;28;20209;-73
2022/07/04 14:54:26;;;;;;;0.80;0.80;;;;;;;;;;4971273;28;20184;-73
2022/07/04 14:56:53;;;;;;;2.17;0.90;;;;;;;;;;4966784;28;20218;-73
2022/07/04 14:59:19;;;;;;;2.80;1.10;;;;;;;;;;4967497;28;20678;-73
2022/07/04 15:01:46;;;;;;;1.35;0.90;;;;;;;;;;4967402;28;20267;-73
2022/07/04 15:04:12;;;;;;;2.55;0.98;;;;;;;;;;4968811;28;20231;-73
2022/07/04 15:06:38;;;;;;;1.40;0.90;;;;;;;;;;4967920;28;20276;-73